Time;durP1;ratioP1;P1;durP2;ratioP2;P2;SDS_P1;SDS_P2;PMS_P1;PMS_P2;Temp;Humidity;BMP_temperature;BMP_pressure;BME280_temperature;BME280_humidity;BME280_pressure;Samples;Min_cycle;Max_cycle;Signal;HPM_P1;HPM_P2
2022/11/14 00:00:22;;;;;;;12.27;10.50;;;;;;;5.23;94.63;101427.03;5021865;28;20354;-85
2022/11/14 00:02:47;;;;;;;13.13;10.33;;;;;;;5.16;94.56;101429.50;5036827;28;20056;-85
2022/11/14 00:05:13;;;;;;;12.27;10.73;;;;;;;5.19;94.45;101421.13;5019798;28;20037;-86
2022/11/14 00:07:38;;;;;;;11.93;10.47;;;;;;;5.16;94.61;101428.69;5021553;28;20527;-85
2022/11/14 00:10:04;;;;;;;13.77;11.07;;;;;;;5.19;94.52;101428.34;5036428;28;20420;-85
2022/11/14 00:12:29;;;;;;;12.60;10.30;;;;;;;5.17;94.50;101412.41;5037400;28;20457;-86
2022/11/14 00:14:54;;;;;;;13.30;10.67;;;;;;;5.16;94.37;101418.75;5022270;28;20063;-85
2022/11/14 00:17:20;;;;;;;11.93;10.13;;;;;;;5.21;94.21;101412.91;5036698;28;20465;-86
2022/11/14 00:19:49;;;;;;;12.13;10.20;;;;;;;5.12;94.72;101411.19;5021968;28;20057;-85
2022/11/14 00:22:14;;;;;;;11.83;10.50;;;;;;;5.14;94.16;101410.03;5021738;28;20068;-84
2022/11/14 00:24:39;;;;;;;13.60;10.20;;;;;;;5.10;94.42;101400.63;5020821;28;20112;-85
2022/11/14 00:27:05;;;;;;;11.30;9.80;;;;;;;5.11;94.30;101404.97;5021648;28;20044;-86
2022/11/14 00:29:30;;;;;;;12.33;10.10;;;;;;;4.99;94.55;101401.75;5021435;28;20072;-86
2022/11/14 00:31:55;;;;;;;11.07;9.77;;;;;;;5.03;94.67;101407.63;5021283;28;20151;-86
2022/11/14 00:34:21;;;;;;;12.33;9.90;;;;;;;5.03;94.57;101402.25;5020870;28;20037;-85
2022/11/14 00:36:46;;;;;;;11.37;9.63;;;;;;;4.84;94.87;101400.66;5022463;28;20043;-86
2022/11/14 00:39:13;;;;;;;11.47;10.23;;;;;;;4.67;95.79;101394.38;5036883;28;20120;-86
2022/11/14 00:41:39;;;;;;;11.67;10.07;;;;;;;4.52;96.77;101403.00;5021330;28;20328;-86
2022/11/14 00:44:05;;;;;;;12.47;10.20;;;;;;;4.38;97.23;101374.09;5012393;28;20693;-86
2022/11/14 00:46:30;;;;;;;12.23;10.50;;;;;;;4.43;97.82;101393.22;5021222;28;20066;-86
2022/11/14 00:48:55;;;;;;;12.77;10.53;;;;;;;4.37;97.90;101389.31;5020843;28;20067;-86
2022/11/14 00:51:21;;;;;;;13.27;10.63;;;;;;;4.38;98.54;101387.50;5021651;28;20041;-85
2022/11/14 00:53:46;;;;;;;13.07;10.63;;;;;;;4.40;98.26;101398.91;5035089;28;20054;-86
2022/11/14 00:56:11;;;;;;;11.47;10.30;;;;;;;4.32;98.41;101383.59;5021398;28;20044;-85
2022/11/14 00:58:37;;;;;;;12.57;10.53;;;;;;;4.34;98.52;101376.22;5021397;28;20607;-86
2022/11/14 01:01:02;;;;;;;13.60;10.63;;;;;;;4.21;98.39;101368.59;5035255;28;20504;-86
2022/11/14 01:03:28;;;;;;;11.47;10.17;;;;;;;4.34;98.79;101375.41;5021150;28;20280;-86
2022/11/14 01:05:53;;;;;;;12.27;10.27;;;;;;;4.32;98.20;101369.34;5021844;28;20574;-85
2022/11/14 01:08:19;;;;;;;12.27;10.33;;;;;;;4.23;97.90;101369.28;5020844;28;20596;-86
2022/11/14 01:10:48;;;;;;;12.17;9.70;;;;;;;4.20;97.77;101364.25;5020138;28;20497;-85
2022/11/14 01:13:15;;;;;;;12.53;10.13;;;;;;;4.25;98.16;101370.97;5020881;28;20153;-85
2022/11/14 01:15:46;;;;;;;11.30;9.97;;;;;;;4.18;97.97;101366.22;5001945;28;20076;-86
2022/11/14 01:18:14;;;;;;;11.33;9.93;;;;;;;4.13;98.08;101368.53;5020211;28;20118;-85
2022/11/14 01:20:41;;;;;;;12.93;10.23;;;;;;;4.12;98.09;101360.66;5020988;28;20029;-85
2022/11/14 01:23:08;;;;;;;12.00;10.43;;;;;;;4.06;98.39;101356.75;5019035;28;20033;-86
2022/11/14 01:25:38;;;;;;;13.30;10.00;;;;;;;3.97;98.98;101353.19;5019780;28;20036;-86
2022/11/14 01:28:09;;;;;;;12.17;9.87;;;;;;;3.96;99.18;101338.09;5011483;28;21453;-85
2022/11/14 01:30:35;;;;;;;12.27;10.20;;;;;;;3.96;99.33;101343.44;5020513;28;20721;-85
2022/11/14 01:33:01;;;;;;;11.80;10.17;;;;;;;3.90;99.90;101327.97;5019962;28;20045;-86
2022/11/14 01:35:26;;;;;;;11.37;10.17;;;;;;;3.96;99.98;101332.72;5002261;28;20049;-85
2022/11/14 01:37:51;;;;;;;12.40;10.27;;;;;;;3.98;100.00;101327.19;5020384;28;20070;-85
2022/11/14 01:40:17;;;;;;;13.13;10.90;;;;;;;3.99;99.82;101323.53;5020461;28;20055;-85
2022/11/14 01:43:17;;;;;;;13.07;10.60;;;;;;;4.10;100.00;101325.13;5019829;28;20041;-85
2022/11/14 01:46:01;;;;;;;13.03;10.30;;;;;;;4.11;100.00;101316.91;5019902;28;20036;-85
2022/11/14 01:48:44;;;;;;;12.23;10.13;;;;;;;4.11;100.00;101319.59;5011502;28;20061;-84
2022/11/14 01:51:19;;;;;;;12.97;11.23;;;;;;;4.03;100.00;101308.81;5019405;28;20037;-85
2022/11/14 01:53:46;;;;;;;12.73;11.20;;;;;;;3.96;100.00;101297.03;5019770;28;20050;-84
2022/11/14 01:56:16;;;;;;;13.07;11.10;;;;;;;3.89;100.00;101302.19;5000690;28;20046;-84
2022/11/14 01:58:45;;;;;;;13.27;11.10;;;;;;;3.91;100.00;101296.66;5001929;28;20041;-85
2022/11/14 02:01:10;;;;;;;15.10;11.23;;;;;;;3.95;100.00;101300.72;5018930;28;20567;-84
2022/11/14 02:03:40;;;;;;;13.07;10.67;;;;;;;3.95;100.00;101298.03;5017456;28;20100;-85
2022/11/14 02:06:07;;;;;;;13.07;10.97;;;;;;;3.87;100.00;101291.59;5033508;28;20405;-85
2022/11/14 02:08:34;;;;;;;14.27;11.77;;;;;;;3.83;100.00;101286.72;5018780;28;20045;-86
2022/11/14 02:10:59;;;;;;;13.23;11.27;;;;;;;3.84;100.00;101288.41;5000365;28;20049;-85
2022/11/14 02:13:24;;;;;;;14.07;11.93;;;;;;;3.84;100.00;101289.22;5034732;28;20497;-85
2022/11/14 02:16:08;;;;;;;13.73;11.47;;;;;;;3.88;100.00;101279.88;5018862;28;20033;-85
2022/11/14 02:18:34;;;;;;;15.87;12.23;;;;;;;3.87;100.00;101283.56;5034261;28;20123;-85
2022/11/14 02:20:59;;;;;;;15.43;11.67;;;;;;;3.88;100.00;101279.88;5019216;28;20041;-85
2022/11/14 02:23:29;;;;;;;15.57;11.90;;;;;;;3.86;100.00;101273.00;5018994;28;20193;-86
2022/11/14 02:25:54;;;;;;;14.27;12.10;;;;;;;3.87;100.00;101272.00;5018405;28;20053;-85
2022/11/14 02:28:20;;;;;;;16.07;12.70;;;;;;;3.84;100.00;101270.47;5033654;28;20041;-85
2022/11/14 02:30:46;;;;;;;15.53;12.90;;;;;;;3.86;100.00;101273.84;5018973;28;20025;-85
2022/11/14 02:33:12;;;;;;;15.90;12.63;;;;;;;3.85;100.00;101268.66;5019087;28;20043;-85
2022/11/14 02:35:37;;;;;;;15.60;13.03;;;;;;;3.91;100.00;101261.81;5019291;28;21392;-85
2022/11/14 02:38:03;;;;;;;15.93;12.40;;;;;;;3.86;100.00;101268.50;5001281;28;20051;-86
2022/11/14 02:40:28;;;;;;;15.23;12.73;;;;;;;3.87;100.00;101272.00;5018560;28;20072;-85
2022/11/14 02:42:53;;;;;;;16.73;13.23;;;;;;;3.89;100.00;101278.88;5019072;28;20044;-85
2022/11/14 02:45:19;;;;;;;16.77;13.40;;;;;;;3.90;100.00;101277.03;5019396;28;21355;-86
2022/11/14 02:47:45;;;;;;;15.10;12.83;;;;;;;3.83;100.00;101270.63;5032914;28;20033;-86
2022/11/14 02:50:10;;;;;;;16.47;13.50;;;;;;;3.85;100.00;101282.06;5019182;28;21353;-85
2022/11/14 02:52:36;;;;;;;16.13;12.50;;;;;;;3.83;100.00;101281.34;5020094;28;20041;-86
2022/11/14 02:55:02;;;;;;;16.63;12.70;;;;;;;3.83;100.00;101271.47;5033638;28;20061;-85
2022/11/14 02:57:27;;;;;;;15.53;12.90;;;;;;;3.79;100.00;101270.09;5019181;28;20041;-86
2022/11/14 02:59:53;;;;;;;16.53;13.20;;;;;;;3.76;100.00;101267.72;5000051;28;20068;-85
2022/11/14 03:02:18;;;;;;;17.90;13.37;;;;;;;3.69;100.00;101262.16;5019121;28;20033;-85
2022/11/14 03:04:43;;;;;;;16.30;12.97;;;;;;;3.67;100.00;101274.03;5018601;28;20124;-85
2022/11/14 03:07:09;;;;;;;16.57;13.17;;;;;;;3.62;100.00;101257.56;5017935;28;20514;-86
2022/11/14 03:09:34;;;;;;;16.83;13.27;;;;;;;3.60;100.00;101262.25;5019014;28;20041;-86
2022/11/14 03:12:00;;;;;;;18.27;13.33;;;;;;;3.48;100.00;101262.50;5033001;28;20045;-85
2022/11/14 03:14:25;;;;;;;18.27;14.10;;;;;;;3.47;100.00;101255.47;5017837;28;20041;-86
2022/11/14 03:16:50;;;;;;;17.20;13.40;;;;;;;3.45;100.00;101254.75;5018077;28;20045;-86
2022/11/14 03:19:16;;;;;;;16.13;13.97;;;;;;;3.39;100.00;101252.72;5018428;28;20570;-85
2022/11/14 03:21:42;;;;;;;17.47;13.93;;;;;;;3.35;100.00;101256.69;5017920;28;20585;-86
2022/11/14 03:24:07;;;;;;;16.67;13.40;;;;;;;3.24;100.00;101249.75;5016124;28;20068;-85
2022/11/14 03:26:32;;;;;;;18.43;14.13;;;;;;;3.19;100.00;101250.19;5018980;28;20188;-85
2022/11/14 03:28:58;;;;;;;18.20;14.10;;;;;;;3.16;100.00;101250.50;5033018;28;20048;-86
2022/11/14 03:31:23;;;;;;;19.53;14.60;;;;;;;3.20;100.00;101249.19;5017787;28;20045;-86
2022/11/14 03:33:48;;;;;;;17.83;14.83;;;;;;;3.16;100.00;101241.63;5019146;28;20088;-85
2022/11/14 03:36:14;;;;;;;17.63;14.87;;;;;;;3.08;100.00;101242.41;5018342;28;20052;-86
2022/11/14 03:38:39;;;;;;;17.67;15.00;;;;;;;3.00;100.00;101235.13;5032693;28;21046;-85
2022/11/14 03:41:05;;;;;;;19.17;15.20;;;;;;;2.95;100.00;101233.91;5021324;28;20038;-86
2022/11/14 03:43:32;;;;;;;18.43;14.87;;;;;;;2.94;100.00;101232.19;5021657;28;20548;-86
2022/11/14 03:45:59;;;;;;;18.77;15.57;;;;;;;2.95;100.00;101239.25;5021289;28;20556;-85
2022/11/14 03:48:25;;;;;;;19.70;15.93;;;;;;;3.00;100.00;101234.28;5004721;28;20029;-85
2022/11/14 03:50:50;;;;;;;20.27;16.03;;;;;;;2.97;100.00;101237.28;5022079;28;20553;-86
2022/11/14 03:53:16;;;;;;;19.20;15.70;;;;;;;2.97;100.00;101226.56;5003708;28;20472;-85
2022/11/14 03:55:44;;;;;;;20.03;16.20;;;;;;;2.93;100.00;101230.53;5036220;28;20494;-86
2022/11/14 03:58:10;;;;;;;19.40;16.13;;;;;;;2.93;100.00;101235.91;5036222;28;20087;-86
2022/11/14 04:00:35;;;;;;;19.20;16.47;;;;;;;2.94;100.00;101229.53;5021176;28;20120;-85
2022/11/14 04:03:00;;;;;;;19.17;16.17;;;;;;;2.91;100.00;101219.13;5021794;28;20037;-85
2022/11/14 04:05:26;;;;;;;18.90;15.90;;;;;;;2.84;100.00;101211.72;5020866;28;20540;-86
2022/11/14 04:07:51;;;;;;;21.60;17.07;;;;;;;2.93;100.00;101227.88;5021525;28;20046;-85
2022/11/14 04:10:17;;;;;;;20.93;17.27;;;;;;;2.87;100.00;101216.78;5019330;28;20132;-86
2022/11/14 04:12:50;;;;;;;20.33;16.87;;;;;;;2.88;100.00;101217.59;5021490;28;20077;-86
2022/11/14 04:15:17;;;;;;;20.37;16.80;;;;;;;2.85;100.00;101209.88;5021787;28;20041;-86
2022/11/14 04:17:42;;;;;;;20.53;17.10;;;;;;;2.86;100.00;101203.53;5021937;28;20037;-86
2022/11/14 04:20:08;;;;;;;20.47;17.27;;;;;;;2.81;100.00;101201.31;5002364;28;20441;-86
2022/11/14 04:22:34;;;;;;;20.70;16.90;;;;;;;2.78;100.00;101206.97;5021965;28;20086;-85
2022/11/14 04:24:59;;;;;;;20.30;17.63;;;;;;;2.70;100.00;101190.84;5020991;28;20455;-86
2022/11/14 04:27:24;;;;;;;22.73;17.67;;;;;;;2.66;100.00;101202.84;5021364;28;20116;-86
2022/11/14 04:29:50;;;;;;;20.60;17.43;;;;;;;2.56;100.00;101200.22;5021430;28;20556;-86
2022/11/14 04:32:15;;;;;;;21.57;17.87;;;;;;;2.45;100.00;101192.38;5021409;28;20063;-86
2022/11/14 04:34:40;;;;;;;21.50;17.63;;;;;;;2.47;100.00;101193.94;5020711;28;20037;-86
2022/11/14 04:37:06;;;;;;;21.37;18.07;;;;;;;2.48;100.00;101190.28;5004409;28;20057;-86
2022/11/14 04:39:31;;;;;;;22.00;18.17;;;;;;;2.30;100.00;101194.72;5020619;28;20048;-86
2022/11/14 04:41:57;;;;;;;21.00;18.33;;;;;;;2.35;100.00;101197.81;5020242;28;20044;-86
2022/11/14 04:44:23;;;;;;;22.47;18.50;;;;;;;2.36;100.00;101188.78;5021200;28;20037;-86
2022/11/14 04:46:48;;;;;;;22.00;18.83;;;;;;;2.42;100.00;101188.22;5003138;28;20076;-86
2022/11/14 04:49:13;;;;;;;21.30;17.83;;;;;;;2.36;100.00;101186.13;5019764;28;20030;-86
2022/11/14 04:51:39;;;;;;;22.63;18.43;;;;;;;2.34;100.00;101188.94;5002058;28;20620;-86
2022/11/14 04:54:04;;;;;;;21.63;18.43;;;;;;;2.39;100.00;101193.84;5020638;28;20053;-85
2022/11/14 04:56:30;;;;;;;22.17;19.20;;;;;;;2.38;100.00;101189.50;5020476;28;20033;-86
2022/11/14 04:58:55;;;;;;;22.20;18.93;;;;;;;2.35;100.00;101192.44;5021018;28;20497;-86
2022/11/14 05:01:20;;;;;;;23.37;18.80;;;;;;;2.36;100.00;101180.78;5021036;28;20151;-86
2022/11/14 05:03:46;;;;;;;22.70;18.90;;;;;;;2.39;100.00;101177.78;5020493;28;20409;-85
2022/11/14 05:06:11;;;;;;;22.50;18.93;;;;;;;2.42;100.00;101176.66;5021482;28;20129;-85
2022/11/14 05:08:37;;;;;;;22.80;19.63;;;;;;;2.38;100.00;101173.47;5019686;28;20564;-85
2022/11/14 05:11:02;;;;;;;23.77;19.73;;;;;;;2.42;100.00;101180.19;5019055;28;20124;-85
2022/11/14 05:13:28;;;;;;;24.07;19.73;;;;;;;2.40;100.00;101176.81;5035837;28;20397;-86
2022/11/14 05:15:57;;;;;;;24.77;19.73;;;;;;;2.42;100.00;101174.84;5035083;28;20037;-85
2022/11/14 05:18:23;;;;;;;25.53;19.60;;;;;;;2.42;100.00;101165.97;5001469;28;20037;-85
2022/11/14 05:20:48;;;;;;;23.67;19.73;;;;;;;2.39;100.00;101168.94;5020430;28;20056;-86
2022/11/14 05:23:22;;;;;;;21.87;18.50;;;;;;;2.35;100.00;101157.69;5034882;28;20048;-85
2022/11/14 05:26:01;;;;;;;22.75;19.65;;;;;;;2.38;100.00;101157.41;5003079;28;20038;-85
2022/11/14 05:28:26;;;;;;;22.57;18.90;;;;;;;2.38;100.00;101161.91;5001953;28;20033;-85
2022/11/14 05:30:52;;;;;;;24.10;19.03;;;;;;;2.34;100.00;101156.03;5003402;28;20884;-85
2022/11/14 05:33:17;;;;;;;23.03;18.83;;;;;;;2.32;100.00;101155.31;5021082;28;20525;-85
2022/11/14 05:35:42;;;;;;;21.73;19.03;;;;;;;2.39;100.00;101150.22;5019729;28;21400;-85
2022/11/14 05:38:08;;;;;;;23.07;19.07;;;;;;;2.38;100.00;101151.19;5020317;28;20069;-85
2022/11/14 05:40:33;;;;;;;21.83;17.97;;;;;;;2.36;100.00;101144.16;5019837;28;20115;-85
2022/11/14 05:42:58;;;;;;;23.77;18.90;;;;;;;2.36;100.00;101146.00;5020699;28;20123;-86
2022/11/14 05:45:24;;;;;;;22.20;18.57;;;;;;;2.40;100.00;101144.72;5002241;28;20069;-85
2022/11/14 05:47:52;;;;;;;23.43;18.93;;;;;;;2.40;100.00;101150.06;5035225;28;20065;-85
2022/11/14 05:50:17;;;;;;;21.83;18.70;;;;;;;2.40;100.00;101141.22;5011845;28;20738;-85
2022/11/14 05:52:43;;;;;;;21.37;17.97;;;;;;;2.40;100.00;101131.34;5020216;28;20295;-86
2022/11/14 05:55:08;;;;;;;21.00;17.80;;;;;;;2.41;100.00;101130.34;5019149;28;20569;-86
2022/11/14 05:57:34;;;;;;;22.60;17.73;;;;;;;2.36;100.00;101135.31;5035820;28;20543;-85
2022/11/14 05:59:59;;;;;;;22.17;18.83;;;;;;;2.37;100.00;101145.03;5011555;28;20026;-86
2022/11/14 06:02:25;;;;;;;21.70;17.77;;;;;;;2.31;100.00;101140.25;5019280;28;20032;-86
2022/11/14 06:04:50;;;;;;;21.40;17.93;;;;;;;2.25;100.00;101122.16;5019800;28;20033;-86
2022/11/14 06:07:16;;;;;;;21.53;18.37;;;;;;;2.30;100.00;101127.88;5019411;28;20974;-86
2022/11/14 06:09:41;;;;;;;21.47;17.70;;;;;;;2.25;100.00;101132.84;5000897;28;20272;-85
2022/11/14 06:12:06;;;;;;;22.33;18.13;;;;;;;2.25;100.00;101138.22;5016953;28;20045;-86
2022/11/14 06:14:32;;;;;;;22.37;17.80;;;;;;;2.22;100.00;101141.16;5019822;28;20033;-86
2022/11/14 06:16:57;;;;;;;22.00;18.20;;;;;;;2.17;100.00;101138.94;5018305;28;20409;-86
2022/11/14 06:19:23;;;;;;;21.03;17.57;;;;;;;2.13;100.00;101140.22;5020162;28;20298;-85
2022/11/14 06:21:48;;;;;;;22.83;18.57;;;;;;;2.14;100.00;101132.06;5017909;28;20049;-86
2022/11/14 06:24:13;;;;;;;22.73;18.20;;;;;;;2.18;100.00;101141.47;5017790;28;20151;-85
2022/11/14 06:26:39;;;;;;;21.60;17.77;;;;;;;2.18;100.00;101148.66;5019620;28;20071;-85
2022/11/14 06:29:04;;;;;;;22.23;17.50;;;;;;;2.12;100.00;101141.22;5020156;28;20052;-86
2022/11/14 06:31:30;;;;;;;21.00;17.43;;;;;;;2.09;100.00;101139.69;5034364;28;20106;-86
2022/11/14 06:33:55;;;;;;;22.07;18.20;;;;;;;2.08;100.00;101154.06;5019048;28;20560;-86
2022/11/14 06:36:21;;;;;;;22.03;17.73;;;;;;;2.01;100.00;101142.25;5017404;28;20045;-86
2022/11/14 06:38:47;;;;;;;21.30;17.23;;;;;;;2.00;100.00;101143.28;5018849;28;20041;-86
2022/11/14 06:41:15;;;;;;;20.47;17.13;;;;;;;1.97;100.00;101149.75;5018857;28;20134;-86
2022/11/14 06:43:43;;;;;;;23.47;18.03;;;;;;;1.99;100.00;101147.75;5018178;28;20106;-86
2022/11/14 06:46:10;;;;;;;20.40;16.67;;;;;;;1.90;100.00;101140.63;5018236;28;20300;-86
2022/11/14 06:48:36;;;;;;;21.33;17.20;;;;;;;1.94;100.00;101143.84;5019190;28;20409;-86
2022/11/14 06:51:03;;;;;;;21.53;17.47;;;;;;;1.96;100.00;101142.72;5032852;28;20042;-86
2022/11/14 06:53:31;;;;;;;21.33;16.80;;;;;;;1.87;100.00;101148.09;4999133;28;20524;-86
2022/11/14 06:55:57;;;;;;;22.00;17.23;;;;;;;1.91;100.00;101149.50;5019054;28;20072;-86
2022/11/14 06:58:27;;;;;;;21.93;17.17;;;;;;;1.89;100.00;101156.81;5019140;28;20034;-87
2022/11/14 07:00:53;;;;;;;21.27;17.60;;;;;;;1.76;100.00;101157.97;5018826;28;20088;-86
2022/11/14 07:03:18;;;;;;;21.33;17.40;;;;;;;1.80;100.00;101156.69;5018797;28;20037;-86
2022/11/14 07:05:44;;;;;;;22.10;17.70;;;;;;;1.81;100.00;101154.84;5010666;28;20531;-86
2022/11/14 07:08:09;;;;;;;20.13;16.53;;;;;;;1.72;100.00;101148.56;5000312;28;20567;-86
2022/11/14 07:10:36;;;;;;;20.17;17.33;;;;;;;1.76;100.00;101160.66;5018853;28;20116;-86
2022/11/14 07:13:01;;;;;;;21.70;17.17;;;;;;;1.72;100.00;101148.56;5018301;28;20037;-86
2022/11/14 07:15:27;;;;;;;20.90;16.50;;;;;;;1.84;100.00;101152.75;5034654;28;20454;-86
2022/11/14 07:17:52;;;;;;;21.33;17.10;;;;;;;1.88;100.00;101155.97;5022684;28;20029;-86
2022/11/14 07:20:17;;;;;;;21.17;16.93;;;;;;;1.98;100.00;101150.56;5037276;28;20059;-86
2022/11/14 07:22:46;;;;;;;21.00;16.87;;;;;;;2.02;100.00;101162.66;5022693;28;20094;-86
2022/11/14 07:25:12;;;;;;;23.03;16.43;;;;;;;2.06;100.00;101164.03;5022648;28;20486;-86
2022/11/14 07:27:38;;;;;;;21.93;16.80;;;;;;;2.06;100.00;101166.72;5037332;28;20101;-86
2022/11/14 07:30:04;;;;;;;21.00;15.90;;;;;;;2.08;100.00;101170.09;4998374;28;20041;-85
2022/11/14 07:32:30;;;;;;;20.93;15.77;;;;;;;2.18;100.00;101159.34;5021637;28;20033;-86
2022/11/14 07:34:55;;;;;;;21.73;15.43;;;;;;;2.16;100.00;101156.81;5003141;28;20303;-85
2022/11/14 07:37:20;;;;;;;21.27;16.67;;;;;;;2.19;100.00;101161.03;5022140;28;20499;-86
2022/11/14 07:39:46;;;;;;;19.43;15.30;;;;;;;2.30;100.00;101154.63;5037022;28;20393;-86
2022/11/14 07:42:11;;;;;;;20.73;15.83;;;;;;;2.38;100.00;101140.50;5020607;28;20429;-86
2022/11/14 07:44:36;;;;;;;20.13;15.20;;;;;;;2.48;100.00;101138.63;5021802;28;20355;-86
2022/11/14 07:47:02;;;;;;;23.17;14.67;;;;;;;2.60;100.00;101140.06;5022023;28;20059;-85
2022/11/14 07:49:27;;;;;;;19.23;14.70;;;;;;;2.73;100.00;101134.31;5038006;28;20149;-86
2022/11/14 07:51:52;;;;;;;19.17;14.73;;;;;;;2.83;100.00;101139.63;5036610;28;20041;-85
2022/11/14 07:54:18;;;;;;;21.30;14.50;;;;;;;3.02;100.00;101135.94;5036601;28;20652;-86
2022/11/14 07:56:43;;;;;;;19.70;13.70;;;;;;;3.17;100.00;101145.09;5021601;28;20163;-86
2022/11/14 07:59:08;;;;;;;18.53;13.80;;;;;;;3.35;100.00;101139.69;5020675;28;20063;-86
2022/11/14 08:01:34;;;;;;;16.83;13.17;;;;;;;3.63;100.00;101128.81;5019581;28;20073;-86
2022/11/14 08:03:59;;;;;;;21.40;12.93;;;;;;;3.86;100.00;101130.91;5021467;28;20171;-87
2022/11/14 08:06:24;;;;;;;17.03;12.13;;;;;;;4.13;100.00;101131.69;5021642;28;20659;-86
2022/11/14 08:08:50;;;;;;;18.47;12.10;;;;;;;4.28;100.00;101138.09;5003833;28;21289;-88
2022/11/14 08:11:46;;;;;;;14.50;11.03;;;;;;;4.48;100.00;101135.16;5035691;28;20131;-89
2022/11/14 08:14:00;;;;;;;16.00;11.37;;;;;;;4.71;99.68;101130.81;5021608;28;20041;-86
2022/11/14 08:16:26;;;;;;;14.40;11.17;;;;;;;4.91;97.68;101130.50;5013505;28;20049;-85
2022/11/14 08:18:51;;;;;;;13.80;10.37;;;;;;;5.08;96.84;101118.72;5016266;28;20489;-86
2022/11/14 08:21:17;;;;;;;15.47;10.70;;;;;;;5.22;95.73;101114.53;5010203;28;20041;-87
2022/11/14 08:23:44;;;;;;;14.80;10.37;;;;;;;5.40;94.35;101119.72;5028919;28;20037;-87
2022/11/14 08:26:31;;;;;;;14.87;10.10;;;;;;;5.78;94.75;101116.44;5028897;28;20052;-86
2022/11/14 08:28:56;;;;;;;14.00;10.20;;;;;;;5.84;93.13;101114.88;5017535;28;20976;-85
2022/11/14 08:31:22;;;;;;;15.00;10.60;;;;;;;5.99;92.28;101121.25;5016369;28;20075;-86
2022/11/14 08:33:50;;;;;;;12.13;9.63;;;;;;;6.20;91.56;101115.25;5016295;28;20576;-86
2022/11/14 08:36:16;;;;;;;14.80;9.90;;;;;;;6.26;89.29;101111.03;5016004;28;20037;-87
2022/11/14 08:38:41;;;;;;;13.53;9.40;;;;;;;6.42;89.29;101107.41;5016507;28;20156;-87
2022/11/14 08:41:06;;;;;;;16.07;9.70;;;;;;;6.52;88.14;101110.69;5029577;28;20041;-87
2022/11/14 08:43:32;;;;;;;12.83;9.77;;;;;;;6.66;88.14;101103.69;5000618;28;20041;-86
2022/11/14 08:45:59;;;;;;;14.17;9.77;;;;;;;6.76;87.18;101103.47;5017368;28;20154;-86
2022/11/14 08:48:24;;;;;;;13.87;9.70;;;;;;;6.87;86.28;101108.41;5030228;28;21030;-86
2022/11/14 08:50:50;;;;;;;13.93;9.87;;;;;;;7.00;86.35;101098.88;4998467;28;20037;-86
2022/11/14 08:53:15;;;;;;;12.90;9.30;;;;;;;7.22;85.71;101107.94;5018907;28;20033;-89
2022/11/14 08:55:47;;;;;;;12.87;9.27;;;;;;;7.36;84.45;101106.31;5016531;28;20057;-88
2022/11/14 08:58:13;;;;;;;14.27;9.17;;;;;;;7.57;83.45;101105.56;5017056;28;20502;-88
2022/11/14 09:00:39;;;;;;;13.80;9.40;;;;;;;7.70;83.48;101094.13;5015942;28;20068;-89
2022/11/14 09:03:08;;;;;;;15.47;9.70;;;;;;;7.84;82.45;101100.53;5029650;28;20099;-90
2022/11/14 09:05:35;;;;;;;15.17;10.03;;;;;;;8.04;81.87;101101.63;5017742;28;20129;-92
2022/11/14 09:08:00;;;;;;;14.27;9.33;;;;;;;8.08;81.96;101094.81;5016439;28;20084;-90
2022/11/14 09:10:26;;;;;;;13.50;9.00;;;;;;;8.42;81.20;101093.34;5019329;28;20541;-89
2022/11/14 09:12:58;;;;;;;12.67;9.33;;;;;;;8.59;80.08;101088.56;5002856;28;20026;-89
2022/11/14 09:15:24;;;;;;;14.00;9.27;;;;;;;8.64;79.30;101090.69;5020218;28;20084;-89
2022/11/14 09:17:56;;;;;;;14.80;9.40;;;;;;;8.69;78.97;101084.69;5016789;28;20281;-88
2022/11/14 09:20:22;;;;;;;11.70;8.83;;;;;;;8.76;79.02;101082.91;5019051;28;20037;-89
2022/11/14 09:22:50;;;;;;;14.03;9.73;;;;;;;8.76;77.81;101080.19;5016131;28;20044;-87
2022/11/14 09:25:16;;;;;;;13.60;9.60;;;;;;;8.91;78.03;101085.53;5017331;28;20434;-88
2022/11/14 09:27:41;;;;;;;12.50;9.20;;;;;;;8.95;77.61;101081.41;5027757;28;20069;-90
2022/11/14 09:30:07;;;;;;;13.43;10.47;;;;;;;8.93;78.40;101081.59;5016278;28;20043;-90
2022/11/14 09:32:36;;;;;;;13.23;10.50;;;;;;;9.12;77.76;101082.78;5015627;28;20076;-88
2022/11/14 09:35:01;;;;;;;14.10;10.60;;;;;;;9.29;78.07;101080.59;5015424;28;20042;-88
2022/11/14 09:37:26;;;;;;;15.27;11.37;;;;;;;9.45;76.87;101076.75;5016447;28;20449;-91
2022/11/14 09:39:52;;;;;;;14.47;10.80;;;;;;;9.50;75.71;101073.44;5013337;28;20438;-89
2022/11/14 09:42:40;;;;;;;15.13;11.50;;;;;;;9.62;76.27;101065.63;5011983;28;20072;-89
2022/11/14 09:45:16;;;;;;;15.87;12.07;;;;;;;9.69;77.26;101065.66;5016122;28;20412;-89
2022/11/14 09:47:44;;;;;;;16.23;11.43;;;;;;;9.57;75.45;101068.94;5017239;28;20038;-87
2022/11/14 09:50:14;;;;;;;23.70;13.30;;;;;;;9.65;74.96;101069.78;5014810;28;20034;-89
2022/11/14 09:52:46;;;;;;;15.17;12.00;;;;;;;9.66;75.46;101071.47;5014776;28;20064;-88
2022/11/14 09:55:16;;;;;;;16.93;12.40;;;;;;;9.60;75.60;101076.66;4999647;28;20375;-88
2022/11/14 09:57:44;;;;;;;15.67;12.27;;;;;;;10.08;76.22;101080.41;5015815;28;20079;-88
2022/11/14 10:00:24;;;;;;;22.67;12.90;;;;;;;9.94;74.09;101082.19;5014952;28;20037;-91
2022/11/14 10:03:15;;;;;;;15.97;12.10;;;;;;;10.13;75.38;101089.59;5027590;28;20033;-88
2022/11/14 10:05:46;;;;;;;17.07;12.70;;;;;;;10.01;74.81;101080.38;5014518;28;20033;-87
2022/11/14 10:08:34;;;;;;;15.03;12.50;;;;;;;10.01;74.20;101076.81;4998937;28;20084;-88
2022/11/14 10:11:11;;;;;;;16.70;12.87;;;;;;;10.39;74.38;101070.91;5013478;28;20048;-90
2022/11/14 10:13:42;;;;;;;17.00;12.67;;;;;;;10.25;73.36;101079.00;5016950;28;20091;-85
2022/11/14 10:16:46;;;;;;;15.03;12.33;;;;;;;10.36;74.41;101076.75;5014425;28;20045;-88
2022/11/14 10:19:40;;;;;;;17.63;12.50;;;;;;;10.12;73.59;101078.97;5027703;28;20034;-90
2022/11/14 10:22:33;;;;;;;15.52;12.48;;;;;;;10.18;73.82;101072.72;5017021;28;20046;-88
2022/11/14 10:25:21;;;;;;;16.37;12.23;;;;;;;10.51;74.96;101069.28;5016313;28;20472;-89
2022/11/14 10:28:01;;;;;;;16.33;12.67;;;;;;;10.52;74.56;101059.28;5021667;28;20552;-90
2022/11/14 10:30:49;;;;;;;17.20;12.43;;;;;;;10.70;73.49;101066.81;5019795;28;20033;-90
2022/11/14 10:33:14;;;;;;;17.53;12.93;;;;;;;10.50;72.88;101061.34;5018681;28;20643;-90
2022/11/14 10:35:44;;;;;;;19.93;13.50;;;;;;;10.61;72.36;101075.13;5020512;28;20168;-92
2022/11/14 10:38:30;;;;;;;17.20;12.90;;;;;;;10.50;73.72;101064.06;5018069;28;20378;-90
2022/11/14 10:41:03;;;;;;;17.97;13.40;;;;;;;10.38;73.81;101069.28;5019197;28;20128;-89
2022/11/14 10:43:45;;;;;;;18.17;13.33;;;;;;;10.44;73.92;101073.84;5019992;28;20469;-89
2022/11/14 10:46:17;;;;;;;16.43;12.87;;;;;;;10.45;72.81;101061.97;5019437;28;20073;-87
2022/11/14 10:48:48;;;;;;;18.80;14.20;;;;;;;10.43;73.05;101055.91;5019608;28;20076;-89
2022/11/14 10:51:25;;;;;;;17.53;14.10;;;;;;;10.40;74.27;101053.63;5018287;28;20714;-88
2022/11/14 10:53:59;;;;;;;18.27;13.70;;;;;;;10.50;74.23;101055.94;5021238;28;20044;-90
2022/11/14 10:56:24;;;;;;;;;;;;;;;11.07;72.87;101059.09;5020579;28;20079;-91
2022/11/14 10:58:50;;;;;;;17.20;13.90;;;;;;;10.59;73.30;101050.13;5018338;28;20438;-94
2022/11/14 11:01:36;;;;;;;16.07;13.90;;;;;;;10.88;75.54;101048.06;5019415;28;20721;-95
2022/11/14 11:04:27;;;;;;;18.27;13.97;;;;;;;10.82;74.28;101032.63;5018896;28;20112;-87
2022/11/14 11:11:28;;;;;;;19.00;15.17;;;;;;;10.68;73.53;101036.38;5020045;28;20068;-90
2022/11/14 11:12:49;;;;;;;18.07;14.83;;;;;;;10.81;73.01;101030.94;5017686;28;20126;-88
2022/11/14 11:15:22;;;;;;;18.47;15.20;;;;;;;10.74;73.57;101024.69;5014782;28;20277;-90
2022/11/14 11:18:28;;;;;;;19.80;15.47;;;;;;;10.94;74.64;101019.28;5013823;28;20049;-89